Time;durP1;ratioP1;P1;durP2;ratioP2;P2;SDS_P1;SDS_P2;PMS_P1;PMS_P2;Temp;Humidity;BMP_temperature;BMP_pressure;BME280_temperature;BME280_humidity;BME280_pressure;Samples;Min_cycle;Max_cycle;Signal;HPM_P1;HPM_P2
2022/06/14 00:01:45;;;;;;;11.63;8.40;;;;;;;18.43;77.98;99172.88;4963120;28;20054;-92
2022/06/14 00:04:11;;;;;;;11.38;8.38;;;;;;;18.35;77.76;99150.78;4962814;28;20081;-94
2022/06/14 00:06:36;;;;;;;12.07;8.40;;;;;;;18.36;77.61;99167.94;4962531;28;20034;-93
2022/06/14 00:09:02;;;;;;;13.95;8.18;;;;;;;18.38;77.79;99166.50;4961666;28;20038;-93
2022/06/14 00:11:33;;;;;;;13.65;8.27;;;;;;;18.49;77.48;99166.13;4962170;28;20089;-92
2022/06/14 00:13:59;;;;;;;11.25;8.43;;;;;;;18.54;77.57;99168.69;4961305;28;20121;-93
2022/06/14 00:16:27;;;;;;;10.93;8.40;;;;;;;18.60;77.36;99172.06;4961997;28;20065;-93
2022/06/14 00:18:53;;;;;;;11.27;8.23;;;;;;;18.53;77.49;99165.19;4962508;28;20029;-93
2022/06/14 00:21:20;;;;;;;11.02;8.43;;;;;;;18.44;78.14;99166.31;4962086;28;20125;-93
2022/06/14 00:23:47;;;;;;;13.52;9.00;;;;;;;18.27;78.47;99167.19;4962166;28;20026;-92
2022/06/14 00:26:13;;;;;;;14.48;9.45;;;;;;;18.24;78.30;99165.91;4978212;28;20385;-93
2022/06/14 00:28:40;;;;;;;10.52;8.98;;;;;;;18.10;78.63;99160.66;4962509;28;20038;-93
2022/06/14 00:31:09;;;;;;;14.07;8.73;;;;;;;18.02;78.32;99152.50;4961613;28;20409;-93
2022/06/14 00:33:35;;;;;;;12.88;9.20;;;;;;;18.12;78.11;99180.19;4962279;28;20076;-94
2022/06/14 00:36:02;;;;;;;13.00;8.75;;;;;;;18.10;78.14;99168.81;4977666;28;20030;-93
2022/06/14 00:38:28;;;;;;;11.57;8.70;;;;;;;18.04;78.44;99161.16;4962020;28;20120;-93
2022/06/14 00:40:55;;;;;;;14.38;9.57;;;;;;;18.04;78.37;99159.22;4977105;28;20500;-93
2022/06/14 00:43:23;;;;;;;10.77;8.70;;;;;;;18.01;78.68;99159.06;4962172;28;20026;-92
2022/06/14 00:45:52;;;;;;;17.77;9.10;;;;;;;18.07;78.84;99174.91;4978349;28;20042;-94
2022/06/14 00:48:22;;;;;;;10.95;8.63;;;;;;;18.13;78.01;99181.78;4977601;28;20061;-93
2022/06/14 00:50:57;;;;;;;16.60;8.98;;;;;;;17.94;78.35;99151.38;4977715;28;20092;-93
2022/06/14 00:53:29;;;;;;;11.90;9.25;;;;;;;17.87;78.97;99156.53;4961558;28;20026;-92
2022/06/14 00:56:25;;;;;;;16.75;8.80;;;;;;;17.88;78.79;99163.56;4977719;28;20096;-92
2022/06/14 00:59:14;;;;;;;13.77;9.05;;;;;;;17.75;79.31;99163.38;4934997;29;20474;-92
2022/06/14 01:01:40;;;;;;;12.20;8.85;;;;;;;17.62;79.17;99144.47;4915538;29;20146;-92
2022/06/14 01:04:13;;;;;;;15.52;9.05;;;;;;;17.68;79.06;99167.69;4887891;29;20042;-92
2022/06/14 01:07:01;;;;;;;10.95;8.40;;;;;;;17.65;78.82;99154.75;4904003;29;20050;-92
2022/06/14 01:09:36;;;;;;;15.93;8.27;;;;;;;17.74;78.52;99152.78;4903882;29;20494;-93
2022/06/14 01:12:10;;;;;;;14.98;8.65;;;;;;;17.71;78.85;99169.78;4918993;29;20027;-92
2022/06/14 01:14:52;;;;;;;10.60;8.30;;;;;;;17.84;78.22;99168.06;4887698;29;20039;-92
2022/06/14 01:17:19;;;;;;;16.33;8.52;;;;;;;17.64;78.79;99153.94;4904487;29;20071;-93
2022/06/14 01:19:45;;;;;;;18.10;8.65;;;;;;;17.75;78.21;99154.41;4888019;29;20134;-92
2022/06/14 01:22:10;;;;;;;18.75;9.05;;;;;;;17.73;79.21;99171.06;4903218;29;20534;-91
2022/06/14 01:24:36;;;;;;;14.43;8.68;;;;;;;17.70;78.84;99168.19;4918566;29;20031;-92
2022/06/14 01:27:01;;;;;;;13.75;8.43;;;;;;;17.58;78.55;99166.91;4887630;29;20024;-92
2022/06/14 01:29:27;;;;;;;11.15;7.95;;;;;;;17.53;78.29;99137.09;4909435;28;20523;-91
2022/06/14 01:32:00;;;;;;;15.13;7.82;;;;;;;17.79;77.93;99166.25;4976892;28;20026;-92
2022/06/14 01:34:25;;;;;;;9.57;7.68;;;;;;;17.73;77.99;99160.16;4961042;28;20030;-93
2022/06/14 01:36:52;;;;;;;12.50;7.65;;;;;;;17.81;77.92;99179.56;4959904;28;20057;-92
2022/06/14 01:39:18;;;;;;;10.20;8.35;;;;;;;17.71;78.23;99170.59;4960458;28;20053;-93
2022/06/14 01:42:03;;;;;;;12.63;8.30;;;;;;;17.80;78.36;99176.03;4976516;28;20022;-93
2022/06/14 01:44:41;;;;;;;13.27;8.98;;;;;;;17.70;78.40;99174.44;4992783;28;20060;-93
2022/06/14 01:47:18;;;;;;;14.10;7.85;;;;;;;17.53;78.77;99163.53;4976107;28;20408;-91
2022/06/14 01:53:11;;;;;;;15.32;9.25;;;;;;;17.49;79.42;99179.72;4993650;28;20081;-91
2022/06/14 01:55:44;;;;;;;13.75;8.82;;;;;;;17.46;79.39;99185.00;4976559;28;20480;-92
2022/06/14 01:58:22;;;;;;;13.90;8.40;;;;;;;17.60;78.39;99173.94;4976751;28;20026;-92
2022/06/14 02:01:05;;;;;;;16.70;8.50;;;;;;;17.50;78.86;99170.44;4976130;28;20579;-92
2022/06/14 02:07:00;;;;;;;13.00;8.30;;;;;;;17.34;79.81;99185.63;4965842;28;20041;-92
2022/06/14 02:10:05;;;;;;;14.73;9.07;;;;;;;17.24;79.95;99196.81;4975369;28;20041;-94
2022/06/14 02:12:52;;;;;;;11.35;8.60;;;;;;;17.30;79.42;99190.09;4962961;28;20038;-94
2022/06/14 02:15:22;;;;;;;10.18;8.68;;;;;;;17.25;79.04;99176.66;4975856;28;20435;-92
2022/06/14 02:18:08;;;;;;;12.18;8.65;;;;;;;17.44;78.99;99184.53;4992921;28;20030;-92
2022/06/14 02:20:53;;;;;;;9.35;8.27;;;;;;;17.38;78.84;99181.13;4976221;28;20037;-93
2022/06/14 02:23:21;;;;;;;20.95;8.80;;;;;;;17.22;78.92;99169.09;4976060;28;20031;-93
2022/06/14 02:25:49;;;;;;;21.27;9.13;;;;;;;17.21;79.43;99171.03;4974861;28;20041;-92
2022/06/14 02:28:18;;;;;;;14.80;8.77;;;;;;;17.28;79.06;99184.97;4975585;28;20042;-92
2022/06/14 02:31:12;;;;;;;16.45;8.95;;;;;;;17.33;78.84;99178.59;4944390;28;20034;-93
2022/06/14 02:33:44;;;;;;;13.30;9.13;;;;;;;17.33;79.14;99178.59;4961099;28;20027;-93
2022/06/14 02:36:30;;;;;;;16.95;9.40;;;;;;;17.32;78.91;99185.13;4960745;28;20496;-93
2022/06/14 02:39:15;;;;;;;13.35;9.23;;;;;;;17.44;78.70;99189.97;4960680;28;20510;-93
2022/06/14 02:41:48;;;;;;;13.15;8.70;;;;;;;17.33;78.89;99167.69;4976230;28;20488;-92
2022/06/14 02:44:16;;;;;;;16.20;8.90;;;;;;;17.39;78.69;99185.47;4961897;28;20034;-93
2022/06/14 02:47:11;;;;;;;13.80;8.77;;;;;;;17.40;79.12;99189.78;4991876;28;20026;-94
2022/06/14 02:49:50;;;;;;;13.93;8.50;;;;;;;17.48;78.27;99189.00;4917672;29;20043;-93
2022/06/14 02:52:21;;;;;;;10.48;8.32;;;;;;;17.60;78.12;99185.66;4902029;29;20422;-93
2022/06/14 02:54:57;;;;;;;12.95;8.43;;;;;;;17.69;77.78;99188.38;4917469;29;20048;-93
2022/06/14 02:57:48;;;;;;;16.88;8.25;;;;;;;17.72;77.67;99188.53;4917817;29;20031;-93
2022/06/14 03:00:35;;;;;;;11.95;8.38;;;;;;;17.76;77.35;99185.97;4918151;29;20043;-93
2022/06/14 03:03:04;;;;;;;18.95;9.00;;;;;;;17.77;77.89;99190.28;4920705;29;20582;-93
2022/06/14 03:05:41;;;;;;;13.20;8.95;;;;;;;17.60;78.28;99185.66;4920581;29;20039;-91
2022/06/14 03:08:24;;;;;;;11.32;8.23;;;;;;;17.60;78.29;99190.28;4905333;29;20028;-91
2022/06/14 03:10:55;;;;;;;19.95;10.13;;;;;;;17.66;78.08;99197.16;4905091;29;20059;-92
2022/06/14 03:13:27;;;;;;;17.30;9.00;;;;;;;17.65;77.62;99192.84;4921025;29;20028;-92
2022/06/14 03:16:08;;;;;;;21.88;9.35;;;;;;;17.67;78.20;99193.34;4920559;29;20070;-91
2022/06/14 03:18:41;;;;;;;13.85;9.30;;;;;;;17.53;78.49;99177.16;4921176;29;20115;-93
2022/06/14 03:21:34;;;;;;;13.48;8.52;;;;;;;17.52;78.17;99175.56;4953452;28;20034;-91
2022/06/14 03:24:10;;;;;;;14.48;8.30;;;;;;;17.53;77.82;99177.94;4980088;28;20018;-93
2022/06/14 03:27:13;;;;;;;12.90;8.70;;;;;;;17.64;77.86;99191.25;4964669;28;20030;-93
2022/06/14 03:30:01;;;;;;;12.63;8.95;;;;;;;17.41;77.66;99176.97;4888751;29;20095;-94
2022/06/14 03:32:41;;;;;;;13.65;8.48;;;;;;;17.53;77.46;99194.28;4976021;28;20041;-93
2022/06/14 03:35:38;;;;;;;11.77;8.52;;;;;;;17.39;78.05;99185.47;4980693;28;20038;-96
2022/06/14 03:38:12;;;;;;;16.65;8.48;;;;;;;17.47;77.44;99184.69;4962828;28;20038;-96
2022/06/14 03:40:37;;;;;;;16.48;9.18;;;;;;;17.42;77.74;99184.03;4964224;28;20034;-96
2022/06/14 03:43:06;;;;;;;13.40;9.15;;;;;;;17.38;77.60;99172.97;4966253;28;20400;-96
2022/06/14 03:46:04;;;;;;;15.05;8.95;;;;;;;17.39;77.94;99174.59;4998366;28;20043;-96
2022/06/14 03:48:31;;;;;;;23.90;9.32;;;;;;;17.64;77.50;99183.91;4928533;29;20044;-96
2022/06/14 03:51:26;;;;;;;17.40;9.38;;;;;;;17.70;77.17;99181.78;4940380;29;20048;-96
2022/06/14 03:54:23;;;;;;;19.77;9.45;;;;;;;17.84;77.34;99201.53;4940991;29;20028;-96
2022/06/14 03:57:15;;;;;;;16.40;9.65;;;;;;;17.96;77.64;99211.78;4924600;29;20106;-95
2022/06/14 03:59:49;;;;;;;;;;;;;;;17.97;77.81;99211.47;4939002;29;20024;-94
2022/06/14 04:02:53;;;;;;;17.17;9.18;;;;;;;18.01;77.82;99217.06;4938573;29;19926;-96
2022/06/14 04:05:41;;;;;;;25.27;10.13;;;;;;;17.96;78.00;99218.03;4924905;29;20028;-93
2022/06/14 04:08:21;;;;;;;13.68;9.55;;;;;;;18.06;77.38;99207.94;4942581;29;20039;-95
2022/06/14 04:11:10;;;;;;;17.88;10.32;;;;;;;18.22;77.16;99227.28;4924636;29;20577;-96
2022/06/14 04:13:39;;;;;;;14.85;9.68;;;;;;;18.31;76.93;99226.16;4905040;29;20108;-94
2022/06/14 04:16:07;;;;;;;20.08;10.70;;;;;;;18.17;77.23;99206.47;4920901;29;20023;-96
2022/06/14 04:19:04;;;;;;;17.77;9.35;;;;;;;18.16;77.50;99200.22;4934664;28;20069;-93
2022/06/14 04:21:35;;;;;;;20.70;10.35;;;;;;;18.29;77.71;99227.63;4966411;28;20129;-95
2022/06/14 04:24:09;;;;;;;17.20;10.15;;;;;;;18.25;77.63;99215.75;4994554;28;20018;-94
2022/06/14 04:26:59;;;;;;;19.00;9.32;;;;;;;18.35;77.39;99232.56;4947886;28;20030;-93
2022/06/14 04:29:46;;;;;;;16.00;9.20;;;;;;;18.48;76.92;99243.63;4974245;28;20746;-93
2022/06/14 04:32:31;;;;;;;32.20;23.92;;;;;;;18.40;77.10;99222.63;4999796;28;20037;-95
2022/06/14 04:35:21;;;;;;;15.77;11.27;;;;;;;18.48;76.33;99216.34;4984716;28;20104;-94
2022/06/14 04:38:00;;;;;;;18.58;10.43;;;;;;;18.68;76.21;99231.22;4970254;28;20033;-95
2022/06/14 04:40:41;;;;;;;12.57;9.52;;;;;;;18.62;75.68;99211.50;4976955;28;20034;-96
2022/06/14 04:43:14;;;;;;;18.10;9.27;;;;;;;18.78;75.24;99209.88;4991292;28;20029;-95
2022/06/14 04:45:54;;;;;;;22.10;9.55;;;;;;;18.77;75.17;99221.06;5000875;28;20101;-94
2022/06/14 04:48:24;;;;;;;13.63;8.75;;;;;;;18.80;74.58;99212.28;4997239;28;20045;-95
2022/06/14 04:51:04;;;;;;;17.02;8.75;;;;;;;19.02;74.25;99226.78;4974979;28;20032;-92
2022/06/14 04:53:43;;;;;;;15.95;9.00;;;;;;;19.06;74.07;99225.78;4965981;28;20026;-94
2022/06/14 04:56:25;;;;;;;23.90;9.73;;;;;;;19.27;74.08;99228.56;4967275;28;20025;-94
2022/06/14 04:58:56;;;;;;;16.60;9.95;;;;;;;19.45;73.35;99253.06;4966870;28;20030;-92
2022/06/14 05:02:01;;;;;;;10.95;9.25;;;;;;;19.40;73.23;99229.44;4983106;28;20495;-93
2022/06/14 05:04:32;;;;;;;11.77;8.73;;;;;;;19.42;72.86;99234.59;4901689;29;20048;-94
2022/06/14 05:07:05;;;;;;;;;;;;;;;19.61;73.05;99247.78;4970955;28;20592;-95
2022/06/14 05:09:36;;;;;;;15.13;8.98;;;;;;;19.55;72.93;99230.81;4981416;28;19953;-93
2022/06/14 05:12:21;;;;;;;13.27;9.00;;;;;;;19.71;72.91;99256.41;4965757;28;20032;-92
2022/06/14 05:14:59;;;;;;;18.15;8.82;;;;;;;19.91;72.69;99259.50;4983673;28;20042;-94
2022/06/14 05:17:35;;;;;;;13.57;8.05;;;;;;;19.79;71.49;99244.63;5015242;28;20049;-95
2022/06/14 05:20:27;;;;;;;11.43;8.50;;;;;;;19.97;71.46;99241.78;4982347;28;20492;-93
2022/06/14 05:23:16;;;;;;;17.98;10.07;;;;;;;19.96;71.25;99240.16;4986085;28;20123;-93
2022/06/14 05:25:53;;;;;;;19.52;8.98;;;;;;;20.19;71.55;99273.41;4968015;28;20041;-94
2022/06/14 05:28:53;;;;;;;14.88;9.45;;;;;;;20.32;71.15;99266.09;4999934;28;20034;-94
2022/06/14 05:31:39;;;;;;;20.00;9.25;;;;;;;20.45;70.25;99273.19;4984676;28;20023;-94
2022/06/14 05:34:29;;;;;;;21.48;9.77;;;;;;;20.54;70.05;99252.03;4959238;28;20456;-92
2022/06/14 05:37:27;;;;;;;20.85;9.43;;;;;;;20.73;69.49;99253.44;4943796;28;20192;-94
2022/06/14 05:40:15;;;;;;;22.05;8.82;;;;;;;20.93;68.83;99263.50;4965580;28;20050;-92
2022/06/14 05:42:55;;;;;;;13.43;7.85;;;;;;;20.97;68.44;99269.91;4958671;28;20027;-93
2022/06/14 05:45:22;;;;;;;22.67;8.23;;;;;;;21.08;68.41;99275.72;4957284;28;20039;-93
2022/06/14 05:47:58;;;;;;;21.42;9.80;;;;;;;21.16;68.81;99282.25;4923566;29;20035;-94
2022/06/14 05:50:27;;;;;;;13.40;8.23;;;;;;;21.11;68.06;99261.38;4944319;28;20497;-94
2022/06/14 05:52:56;;;;;;;17.65;8.13;;;;;;;21.19;67.18;99244.03;4940202;29;20031;-92
2022/06/14 05:55:38;;;;;;;17.52;8.52;;;;;;;21.30;66.94;99251.78;4924290;29;20023;-93
2022/06/14 05:58:17;;;;;;;77.72;43.17;;;;;;;21.43;67.27;99264.34;4923761;29;20046;-93
2022/06/14 06:00:48;;;;;;;21.20;9.88;;;;;;;21.51;66.59;99279.88;4923611;29;20055;-93
2022/06/14 06:03:33;;;;;;;15.13;7.68;;;;;;;21.62;67.13;99277.44;4958907;28;20050;-95
2022/06/14 06:06:26;;;;;;;23.08;12.13;;;;;;;21.68;66.35;99245.13;4948381;28;20026;-95
2022/06/14 06:09:48;;;;;;;19.92;8.90;;;;;;;21.76;66.82;99264.19;4960123;28;20121;-92
2022/06/14 06:12:22;;;;;;;18.42;10.50;;;;;;;21.94;66.48;99266.69;4902425;29;20024;-94
2022/06/14 06:14:56;;;;;;;23.38;11.30;;;;;;;22.09;66.31;99270.63;4951871;28;20521;-92
2022/06/14 06:17:37;;;;;;;21.92;12.05;;;;;;;22.15;65.98;99263.75;4998301;28;20506;-95
2022/06/14 06:20:07;;;;;;;13.02;7.93;;;;;;;22.44;65.43;99284.56;4986960;28;20026;-93
2022/06/14 06:26:02;;;;;;;13.95;7.78;;;;;;;22.56;63.77;99259.03;4918594;29;20565;-94
2022/06/14 06:34:47;;;;;;;17.08;7.55;;;;;;;22.86;63.59;99261.34;4959552;28;20042;-95
2022/06/14 06:44:33;;;;;;;9.93;6.25;;;;;;;23.45;61.39;99276.13;4964233;29;20074;-94
2022/06/14 06:47:33;;;;;;;10.90;7.60;;;;;;;23.55;60.55;99270.09;4943600;29;20031;-95
2022/06/14 06:50:32;;;;;;;14.00;7.82;;;;;;;23.71;61.10;99273.59;4947279;29;20043;-94
2022/06/14 06:55:51;;;;;;;11.10;5.80;;;;;;;23.94;58.83;99265.47;6029135;23;20786;-94
2022/06/14 07:06:56;;;;;;;;;;;;;;;24.45;58.03;99281.03;5038605;28;20052;-94
2022/06/14 07:10:02;;;;;;;40.90;31.40;;;;;;;24.39;57.20;99264.00;5004417;28;20059;-95
2022/06/14 07:13:09;;;;;;;124.40;101.90;;;;;;;24.51;57.02;99260.34;5005154;28;20184;-96
2022/06/14 07:15:42;;;;;;;19.33;13.90;;;;;;;24.72;57.16;99272.91;5022870;28;20041;-95
2022/06/14 07:18:40;;;;;;;10.38;5.18;;;;;;;24.68;55.82;99258.28;5007827;28;20040;-94
2022/06/14 07:21:53;;;;;;;;;;;;;;;;;;;;;
2022/06/14 07:24:56;;;;;;;8.82;4.38;;;;;;;24.90;54.27;99257.50;4998575;28;20100;-95
2022/06/14 07:27:27;;;;;;;7.30;3.90;;;;;;;25.12;52.67;99264.13;5005730;28;20115;-93
2022/06/14 07:30:08;;;;;;;8.00;4.38;;;;;;;25.15;51.86;99273.63;5002672;28;20033;-93
2022/06/14 07:32:46;;;;;;;5.68;3.45;;;;;;;25.22;50.77;99259.22;4985937;28;20037;-95
2022/06/14 07:35:23;;;;;;;8.15;7.13;;;;;;;25.23;51.71;99249.78;4987387;28;20033;-96
2022/06/14 07:38:24;;;;;;;;;;;;;;;;;;;;;
2022/06/14 07:41:19;;;;;;;4.18;3.78;;;;;;;25.47;50.45;99265.88;5005951;28;20423;-95
2022/06/14 07:44:00;;;;;;;10.63;6.38;;;;;;;25.51;51.60;99252.16;4981556;28;20044;-94
2022/06/14 07:46:53;;;;;;;7.05;3.70;;;;;;;25.56;49.43;99258.13;4990042;28;20038;-95
2022/06/14 07:50:04;;;;;;;4.40;3.80;;;;;;;25.54;49.74;99254.16;4998493;28;20020;-96
2022/06/14 07:52:37;;;;;;;;;;;;;;;25.80;49.92;99289.22;4977427;28;20049;-94
2022/06/14 07:55:20;;;;;;;8.32;4.25;;;;;;;25.71;49.64;99267.44;4985725;28;19914;-92
2022/06/14 07:57:46;;;;;;;6.30;4.72;;;;;;;25.78;48.78;99264.75;4970210;28;20472;-95
2022/06/14 08:01:09;;;;;;;9.90;4.35;;;;;;;25.74;49.23;99258.41;4968425;28;20022;-94
2022/06/14 08:04:01;;;;;;;9.65;4.32;;;;;;;25.94;49.79;99267.38;4996915;28;20035;-92
2022/06/14 08:06:54;;;;;;;5.20;3.88;;;;;;;26.06;49.03;99277.34;4971590;28;20405;-96
2022/06/14 08:09:27;;;;;;;7.10;3.67;;;;;;;26.09;49.08;99273.84;4972307;28;20038;-92
2022/06/14 08:11:58;;;;;;;4.97;3.83;;;;;;;26.05;47.75;99266.72;4997277;28;20452;-93
2022/06/14 08:14:49;;;;;;;5.10;3.90;;;;;;;26.19;47.90;99266.88;4995268;28;20026;-94
2022/06/14 08:17:36;;;;;;;6.85;3.60;;;;;;;26.26;47.68;99277.19;4969627;28;20045;-95
2022/06/14 08:20:21;;;;;;;13.65;4.03;;;;;;;26.39;47.67;99282.06;4958933;28;20098;-96
2022/06/14 08:23:41;;;;;;;;;;;;;;;;;;;;;
2022/06/14 08:26:29;;;;;;;9.48;3.70;;;;;;;26.61;46.41;99291.44;4947480;28;20118;-94
2022/06/14 08:35:52;;;;;;;5.28;3.92;;;;;;;26.40;46.14;99275.41;4960263;29;20033;-94
2022/06/14 08:38:18;;;;;;;7.47;3.20;;;;;;;26.52;46.05;99290.91;4924791;28;20027;-93
2022/06/14 08:43:43;;;;;;;6.07;3.42;;;;;;;26.54;46.29;99274.75;5212480;23;20054;-94
2022/06/14 08:46:19;;;;;;;4.03;3.58;;;;;;;26.68;45.65;99282.41;4967734;28;20038;-96
2022/06/14 08:48:54;;;;;;;3.85;3.40;;;;;;;26.79;46.52;99285.28;4965551;28;20410;-94
2022/06/14 08:51:35;;;;;;;5.90;3.47;;;;;;;26.75;46.14;99276.97;4982231;28;20112;-94
2022/06/14 08:54:26;;;;;;;6.72;3.30;;;;;;;26.94;46.13;99295.31;5000419;28;20038;-96
2022/06/14 08:57:17;;;;;;;4.07;3.03;;;;;;;27.01;45.89;99286.28;4949148;29;20616;-95
2022/06/14 09:00:05;;;;;;;5.90;3.80;;;;;;;27.05;45.80;99287.09;4952132;29;20115;-96
2022/06/14 09:03:34;;;;;;;6.38;3.25;;;;;;;26.97;45.35;99258.59;4953037;29;20031;-96
2022/06/14 09:06:48;;;;;;;6.47;3.95;;;;;;;27.31;46.60;99285.34;4934724;29;20030;-96
2022/06/14 09:10:17;;;;;;;4.38;3.10;;;;;;;27.32;45.74;99278.66;4946995;29;20035;-92
2022/06/14 09:13:21;;;;;;;4.30;2.90;;;;;;;27.31;44.19;99279.81;4945877;29;20031;-94
2022/06/14 09:16:39;;;;;;;5.25;2.88;;;;;;;27.36;43.51;99268.41;4944674;29;20127;-96
2022/06/14 09:19:55;;;;;;;7.53;3.30;;;;;;;27.42;44.41;99245.53;4867096;29;20048;-94
2022/06/14 09:23:00;;;;;;;3.97;2.92;;;;;;;27.84;43.53;99271.06;4880350;29;20043;-96
2022/06/14 09:32:33;;;;;;;5.10;3.40;;;;;;;27.98;44.15;99273.94;4965366;28;20065;-96
2022/06/14 09:35:26;;;;;;;7.25;3.60;;;;;;;28.04;44.78;99274.38;4962520;28;20072;-95
2022/06/14 09:38:22;;;;;;;7.75;3.47;;;;;;;27.97;44.16;99269.59;4977970;28;20058;-96
2022/06/14 09:41:00;;;;;;;5.90;3.75;;;;;;;27.98;45.09;99262.88;4961668;28;20027;-94
2022/06/14 09:43:25;;;;;;;8.00;3.00;;;;;;;27.91;42.65;99273.09;4980011;28;20058;-93
2022/06/14 09:45:58;;;;;;;4.03;3.15;;;;;;;27.88;43.23;99263.63;4998164;28;20310;-91
2022/06/14 09:48:52;;;;;;;5.85;3.05;;;;;;;27.95;43.28;99263.66;4978570;28;20117;-94
2022/06/14 09:51:39;;;;;;;4.90;3.95;;;;;;;27.87;43.93;99275.88;4960153;28;20096;-94
2022/06/14 09:54:24;;;;;;;4.28;3.42;;;;;;;27.81;44.71;99269.88;4964399;28;20031;-93
2022/06/14 09:56:59;;;;;;;3.53;3.15;;;;;;;27.59;43.94;99249.59;4985512;28;20383;-92
2022/06/14 10:00:02;;;;;;;4.97;3.75;;;;;;;27.69;44.81;99269.41;4971327;28;20391;-94
2022/06/14 10:06:07;;;;;;;5.18;2.97;;;;;;;27.69;41.50;99250.06;4955000;28;20531;-95
2022/06/14 10:08:48;;;;;;;6.78;3.47;;;;;;;27.75;44.06;99248.50;4961439;28;20027;-96
2022/06/14 10:11:39;;;;;;;8.20;3.45;;;;;;;27.80;44.23;99253.66;4959337;28;20026;-92
2022/06/14 10:14:34;;;;;;;4.13;3.20;;;;;;;27.55;43.15;99231.41;4944913;28;20030;-95
2022/06/14 10:17:22;;;;;;;4.38;3.20;;;;;;;27.74;43.91;99260.75;4962331;28;20035;-94
2022/06/14 10:20:13;;;;;;;7.40;3.00;;;;;;;27.73;44.14;99262.72;4962796;28;20077;-92
2022/06/14 10:23:08;;;;;;;4.93;2.92;;;;;;;27.64;44.07;99250.41;4945456;28;20030;-90
2022/06/14 10:29:46;;;;;;;6.32;3.03;;;;;;;27.89;44.84;99258.88;4887637;29;20125;-96
2022/06/14 10:32:58;;;;;;;4.07;2.80;;;;;;;27.86;42.76;99257.66;4873495;29;20029;-95
2022/06/14 10:35:45;;;;;;;6.45;3.08;;;;;;;27.66;42.33;99232.22;4881479;29;20029;-94
2022/06/14 10:38:46;;;;;;;6.63;2.65;;;;;;;27.87;40.72;99264.81;4901392;29;20055;-94
2022/06/14 10:41:41;;;;;;;5.27;2.43;;;;;;;27.73;38.95;99257.19;4910327;29;20108;-94
2022/06/14 10:44:36;;;;;;;3.20;2.22;;;;;;;27.72;37.13;99246.50;4896363;29;20703;-95
2022/06/14 10:47:53;;;;;;;6.35;2.65;;;;;;;27.79;41.12;99246.56;4902779;29;20043;-95
2022/06/14 10:50:48;;;;;;;14.35;7.65;;;;;;;27.62;42.45;99231.41;4869377;29;20056;-95
2022/06/14 10:53:50;;;;;;;5.13;3.20;;;;;;;27.76;40.83;99245.34;4904006;29;20140;-93
2022/06/14 10:56:53;;;;;;;5.25;2.65;;;;;;;27.69;40.49;99233.47;4918855;29;20042;-93
2022/06/14 10:59:56;;;;;;;5.07;3.15;;;;;;;27.83;40.39;99236.28;4909326;29;20142;-95
2022/06/14 11:02:30;;;;;;;5.53;2.80;;;;;;;27.82;39.46;99238.25;4962665;29;20031;-93
2022/06/14 11:05:24;;;;;;;6.45;2.75;;;;;;;28.05;39.83;99233.63;4958859;28;20029;-93
2022/06/14 11:07:53;;;;;;;5.65;2.80;;;;;;;27.99;39.35;99247.03;4940652;29;20517;-95
2022/06/14 11:11:08;;;;;;;5.40;2.80;;;;;;;27.98;38.90;99229.66;4940847;29;20024;-95
2022/06/14 11:13:43;;;;;;;3.72;2.65;;;;;;;28.01;39.11;99239.16;4936903;29;20028;-94
2022/06/14 11:16:23;;;;;;;7.85;2.80;;;;;;;28.01;39.29;99233.63;4946092;29;20059;-93
2022/06/14 11:19:05;;;;;;;8.52;3.75;;;;;;;27.98;40.61;99221.34;4958031;29;20031;-94
2022/06/14 11:21:52;;;;;;;5.95;3.10;;;;;;;28.06;39.62;99221.38;4946247;29;20506;-94
2022/06/14 11:24:41;;;;;;;;;;;;;;;;;;;;;
2022/06/14 11:27:49;;;;;;;5.82;2.50;;;;;;;28.17;39.63;99217.47;4945866;29;20491;-93
2022/06/14 11:30:26;;;;;;;39.20;5.05;;;;;;;28.21;39.80;99218.25;4934660;29;20069;-95
2022/06/14 11:32:57;;;;;;;4.70;2.60;;;;;;;28.15;39.54;99196.88;4949211;28;20071;-96
2022/06/14 11:36:07;;;;;;;4.35;2.38;;;;;;;28.21;37.83;99223.78;4925746;29;20039;-95
2022/06/14 11:39:12;;;;;;;6.10;2.58;;;;;;;28.17;38.54;99192.53;4942117;29;20035;-94
2022/06/14 11:41:44;;;;;;;5.28;3.00;;;;;;;28.24;40.23;99188.97;4944390;29;20035;-95
2022/06/14 11:51:45;;;;;;;8.30;2.50;;;;;;;28.17;39.57;99192.53;4922553;29;20051;-93
2022/06/14 11:57:56;;;;;;;3.35;2.63;;;;;;;27.96;38.80;99162.03;4948614;29;20047;-92
2022/06/14 12:14:06;;;;;;;;;;;;;;;28.63;38.08;99174.44;4942973;29;20035;-95
2022/06/14 12:20:04;;;;;;;7.22;2.72;;;;;;;28.71;38.41;99150.28;4946414;29;20114;-94
2022/06/14 12:23:37;;;;;;;;;;;;;;;;;;;;;
2022/06/14 12:27:02;;;;;;;;;;;;;;;;;;;;;
2022/06/14 12:29:37;;;;;;;4.97;2.58;;;;;;;29.21;38.89;99172.44;4964771;29;20071;-96
2022/06/14 12:32:18;;;;;;;5.05;3.08;;;;;;;29.46;38.15;99189.00;4967241;28;20034;-95
2022/06/14 12:34:51;;;;;;;5.05;2.70;;;;;;;29.58;38.96;99191.34;5029122;28;20476;-96
2022/06/14 12:37:42;;;;;;;11.57;3.40;;;;;;;29.73;39.50;99203.22;5004613;28;20097;-93
2022/06/14 12:41:38;;;;;;;;;;;;;;;;;;;;;
2022/06/14 12:43:51;;;;;;;8.25;3.00;;;;;;;29.24;39.82;99157.78;4980603;28;20046;-93
2022/06/14 12:50:11;;;;;;;11.35;3.10;;;;;;;29.52;38.78;99190.16;4927067;29;20028;-95
2022/06/14 12:52:43;;;;;;;4.78;2.60;;;;;;;29.79;36.21;99173.06;4935842;28;20068;-94
2022/06/14 12:55:31;;;;;;;6.25;2.75;;;;;;;30.07;37.84;99166.56;4969471;28;20049;-95
2022/06/14 12:58:33;;;;;;;8.55;2.85;;;;;;;30.10;36.11;99156.63;4974471;28;20104;-93
2022/06/14 13:01:41;;;;;;;5.05;3.17;;;;;;;30.34;37.28;99166.00;4950032;28;20034;-95
2022/06/14 13:11:41;;;;;;;8.32;2.97;;;;;;;30.11;39.25;99169.31;5015647;28;20045;-95
2022/06/14 13:14:36;;;;;;;5.60;2.67;;;;;;;29.77;38.54;99139.38;4939237;29;20091;-95
2022/06/14 13:17:13;;;;;;;7.20;2.92;;;;;;;29.69;39.19;99141.34;4887804;29;20077;-94
2022/06/14 13:20:29;;;;;;;5.57;2.50;;;;;;;29.56;39.39;99140.22;4886319;29;20045;-93
2022/06/14 13:26:37;;;;;;;5.57;3.03;;;;;;;29.58;40.02;99160.81;4947706;29;20104;-96
2022/06/14 13:29:30;;;;;;;12.70;3.58;;;;;;;29.75;38.18;99153.63;4933012;29;20505;-94
2022/06/14 13:32:27;;;;;;;9.75;3.80;;;;;;;29.56;36.39;99132.69;4944613;29;20103;-96
2022/06/14 13:35:39;;;;;;;14.60;3.22;;;;;;;29.55;37.81;99127.53;4944665;28;20123;-96
2022/06/14 13:38:18;;;;;;;4.43;2.67;;;;;;;29.99;35.73;99143.59;4975283;28;20035;-96
2022/06/14 13:42:04;;;;;;;9.35;3.00;;;;;;;30.34;35.24;99132.69;4962326;28;20512;-95
2022/06/14 13:45:15;;;;;;;3.17;2.55;;;;;;;31.33;34.52;99144.09;4928629;29;20039;-96
2022/06/14 13:48:29;;;;;;;5.17;2.87;;;;;;;31.49;34.93;99124.06;4938256;29;20053;-96
2022/06/14 13:51:34;;;;;;;10.77;2.85;;;;;;;31.45;36.43;99155.94;4915443;29;20067;-96
2022/06/14 13:54:37;;;;;;;4.35;2.30;;;;;;;30.95;36.42;99146.88;4951796;28;20042;-95
2022/06/14 13:57:33;;;;;;;5.25;2.70;;;;;;;30.78;37.10;99145.03;4977140;28;20504;-95
2022/06/14 14:14:21;;;;;;;;;;;;;;;;;;;;;
2022/06/14 14:21:00;;;;;;;11.93;2.65;;;;;;;30.94;35.22;99147.28;4982339;28;20046;-96
2022/06/14 14:23:51;;;;;;;;;;;;;;;;;;;;;
2022/06/14 14:26:34;;;;;;;11.40;2.92;;;;;;;29.69;35.91;99119.13;4965743;28;20130;-94
2022/06/14 14:29:29;;;;;;;9.68;2.60;;;;;;;29.55;35.34;99121.97;4985468;28;20186;-95
2022/06/14 14:32:12;;;;;;;5.68;3.17;;;;;;;29.49;36.08;99160.47;4984582;28;20030;-94
2022/06/14 14:34:57;;;;;;;16.58;12.23;;;;;;;29.13;36.19;99151.44;5000368;28;20026;-94
2022/06/14 14:37:52;;;;;;;4.78;2.00;;;;;;;29.24;36.63;99168.06;4984669;28;20358;-95
2022/06/14 14:43:47;;;;;;;4.63;2.30;;;;;;;28.80;40.10;99156.22;4976857;28;20404;-93
2022/06/14 14:47:06;;;;;;;6.65;2.20;;;;;;;28.51;40.25;99150.66;4979390;28;20035;-95
2022/06/14 14:50:21;;;;;;;9.18;2.28;;;;;;;28.52;41.87;99149.50;4920003;29;20068;-95
2022/06/14 14:53:07;;;;;;;8.10;2.80;;;;;;;29.19;42.97;99183.91;4977255;28;20050;-89
2022/06/14 14:55:45;;;;;;;6.32;2.10;;;;;;;28.86;42.42;99159.38;4983636;28;20046;-90
2022/06/14 14:58:23;;;;;;;12.30;3.60;;;;;;;29.41;41.39;99181.88;4971257;28;20023;-89
2022/06/14 15:06:45;;;;;;;10.27;3.08;;;;;;;28.32;42.25;99160.13;5006810;28;20078;-96
2022/06/14 15:09:25;;;;;;;10.32;3.25;;;;;;;28.39;42.23;99143.53;4987583;28;20096;-96
2022/06/14 15:12:08;;;;;;;8.80;2.80;;;;;;;28.47;41.78;99149.84;4987863;28;20033;-93